createdAt,value
2022-09-27T00:00:37.600Z,8.97
2022-09-27T00:02:45.601Z,9.06
2022-09-27T00:04:56.333Z,9.05
2022-09-27T00:07:04.328Z,9.03
2022-09-27T00:09:13.445Z,9.00
2022-09-27T00:11:29.451Z,8.98
2022-09-27T00:13:37.550Z,9.04
2022-09-27T00:15:45.415Z,9.08
2022-09-27T00:17:53.828Z,8.98
2022-09-27T00:20:05.648Z,9.03
2022-09-27T00:22:13.538Z,9.24
2022-09-27T00:24:24.822Z,9.10
2022-09-27T00:26:32.952Z,9.04
2022-09-27T00:28:40.830Z,9.12
2022-09-27T00:30:48.775Z,9.07
2022-09-27T00:32:58.542Z,9.07
2022-09-27T00:35:09.339Z,9.05
2022-09-27T00:37:20.330Z,9.09
2022-09-27T00:39:28.717Z,9.06
2022-09-27T00:41:38.684Z,9.12
2022-09-27T00:43:50.916Z,9.13
2022-09-27T00:46:03.761Z,9.20
2022-09-27T00:48:18.866Z,9.19
2022-09-27T00:50:32.785Z,9.07
2022-09-27T00:52:48.898Z,9.08
2022-09-27T00:55:03.239Z,9.05
2022-09-27T00:57:12.270Z,9.04
2022-09-27T00:59:26.992Z,9.01
2022-09-27T01:01:35.115Z,8.97
2022-09-27T01:03:48.947Z,9.02
2022-09-27T01:06:01.450Z,8.98
2022-09-27T01:08:10.263Z,9.07
2022-09-27T01:10:19.212Z,9.02
2022-09-27T01:12:34.676Z,9.12
2022-09-27T01:15:03.483Z,9.10
2022-09-27T01:17:29.406Z,9.06
2022-09-27T01:20:00.050Z,9.00
2022-09-27T01:22:17.875Z,8.91
2022-09-27T01:24:43.933Z,8.91
2022-09-27T01:27:24.555Z,8.92
2022-09-27T01:29:42.893Z,8.88
2022-09-27T01:32:05.853Z,8.92
2022-09-27T01:34:21.196Z,8.84
2022-09-27T01:36:37.597Z,8.80
2022-09-27T01:38:56.414Z,8.81
2022-09-27T01:41:10.747Z,8.77
2022-09-27T01:43:39.477Z,8.84
2022-09-27T01:45:55.046Z,8.84
2022-09-27T01:48:26.673Z,8.87
2022-09-27T01:50:42.299Z,8.88
2022-09-27T01:52:54.115Z,8.92
2022-09-27T01:55:08.434Z,8.97
2022-09-27T01:57:49.207Z,9.07
2022-09-27T02:00:08.024Z,9.02
2022-09-27T02:02:26.233Z,9.06
2022-09-27T02:05:18.060Z,9.08
2022-09-27T02:07:36.292Z,9.18
2022-09-27T02:09:51.221Z,9.09
2022-09-27T02:12:08.481Z,9.19
2022-09-27T02:14:22.587Z,9.15
2022-09-27T02:16:47.721Z,9.15
2022-09-27T02:19:05.415Z,9.16
2022-09-27T02:21:21.129Z,9.10
2022-09-27T02:23:37.937Z,9.13
2022-09-27T02:25:57.165Z,9.18
2022-09-27T02:28:12.953Z,9.23
2022-09-27T02:30:23.126Z,9.21
2022-09-27T02:32:39.108Z,9.22
2022-09-27T02:34:49.823Z,9.22
2022-09-27T02:37:00.446Z,9.16
2022-09-27T02:39:10.119Z,9.15
2022-09-27T02:41:18.798Z,9.19
2022-09-27T02:43:31.977Z,9.15
2022-09-27T02:45:54.957Z,9.13
2022-09-27T02:48:14.547Z,9.13
2022-09-27T02:50:52.063Z,9.08
2022-09-27T02:53:18.518Z,9.08
2022-09-27T02:55:44.371Z,9.06
2022-09-27T02:58:30.279Z,9.03
2022-09-27T03:01:06.154Z,8.98
2022-09-27T03:03:53.561Z,8.98
2022-09-27T03:06:07.187Z,8.91
2022-09-27T03:08:20.190Z,8.86
2022-09-27T03:10:32.871Z,8.86
2022-09-27T03:12:41.664Z,8.77
2022-09-27T03:14:49.635Z,8.75
2022-09-27T03:17:17.742Z,8.68
2022-09-27T03:19:44.195Z,8.63
2022-09-27T03:22:11.777Z,8.57
2022-09-27T03:24:22.299Z,8.53
2022-09-27T03:26:32.049Z,8.49
2022-09-27T03:28:39.902Z,8.46
2022-09-27T03:30:48.976Z,8.47
2022-09-27T03:33:19.934Z,8.41
2022-09-27T03:35:31.576Z,8.41
2022-09-27T03:37:39.690Z,8.40
2022-09-27T03:39:50.717Z,8.29
2022-09-27T03:41:58.616Z,8.36
2022-09-27T03:44:06.521Z,8.32
2022-09-27T03:46:14.497Z,8.32
2022-09-27T03:48:27.759Z,8.28
2022-09-27T03:50:36.315Z,8.23
2022-09-27T03:52:46.204Z,8.20
2022-09-27T03:55:01.860Z,8.24
2022-09-27T03:57:11.728Z,8.29
2022-09-27T03:59:21.133Z,8.31
2022-09-27T04:02:04.082Z,8.31
2022-09-27T04:04:33.485Z,8.40
2022-09-27T04:06:41.391Z,8.37
2022-09-27T04:08:50.370Z,8.36
2022-09-27T04:11:01.254Z,8.41
2022-09-27T04:13:09.932Z,8.46
2022-09-27T04:15:28.544Z,8.45
2022-09-27T04:17:55.159Z,8.47
2022-09-27T04:20:14.873Z,8.45
2022-09-27T04:22:24.562Z,8.49
2022-09-27T04:24:33.026Z,8.52
2022-09-27T04:27:03.449Z,8.50
2022-09-27T04:29:12.236Z,8.44
2022-09-27T04:31:29.904Z,8.47
2022-09-27T04:33:49.939Z,8.57
2022-09-27T04:36:15.966Z,8.61
2022-09-27T04:38:39.808Z,8.52
2022-09-27T04:40:49.302Z,8.62
2022-09-27T04:43:00.257Z,8.61
2022-09-27T04:45:09.553Z,8.61
2022-09-27T04:47:18.511Z,8.56
2022-09-27T04:49:26.627Z,8.56
2022-09-27T04:51:34.514Z,8.58
2022-09-27T04:53:42.494Z,8.58
2022-09-27T04:55:50.595Z,8.53
2022-09-27T04:58:01.782Z,8.64
2022-09-27T05:00:12.543Z,8.62
2022-09-27T05:02:20.959Z,8.62
2022-09-27T05:05:00.595Z,8.57
2022-09-27T05:07:15.510Z,8.60
2022-09-27T05:09:28.502Z,8.62
2022-09-27T05:11:38.946Z,8.62
2022-09-27T05:14:09.572Z,8.66
2022-09-27T05:16:33.961Z,8.74
2022-09-27T05:19:17.375Z,8.74
2022-09-27T05:21:44.013Z,8.76
2022-09-27T05:24:02.271Z,8.71
2022-09-27T05:26:11.980Z,8.69
2022-09-27T05:28:20.022Z,8.67
2022-09-27T05:30:30.669Z,8.64
2022-09-27T05:32:54.772Z,8.73
2022-09-27T05:35:21.312Z,8.64
2022-09-27T05:37:30.117Z,8.59
2022-09-27T05:39:38.463Z,8.68
2022-09-27T05:41:46.520Z,8.67
2022-09-27T05:43:54.720Z,8.60
2022-09-27T05:46:05.592Z,8.61
2022-09-27T05:48:14.949Z,8.55
2022-09-27T05:50:42.480Z,8.63
2022-09-27T05:52:50.908Z,8.63
2022-09-27T05:55:00.642Z,8.64
2022-09-27T05:57:08.823Z,8.58
2022-09-27T05:59:28.562Z,8.48
2022-09-27T06:02:02.139Z,8.40
2022-09-27T06:04:30.066Z,8.54
2022-09-27T06:06:59.138Z,8.44
2022-09-27T06:09:07.217Z,8.47
2022-09-27T06:11:15.773Z,8.41
2022-09-27T06:13:24.015Z,8.34
2022-09-27T06:15:34.572Z,8.44
2022-09-27T06:17:46.035Z,8.55
2022-09-27T06:19:59.685Z,8.62
2022-09-27T06:22:07.756Z,8.65
2022-09-27T06:24:29.794Z,8.65
2022-09-27T06:26:40.694Z,8.63
2022-09-27T06:29:07.948Z,8.66
2022-09-27T06:31:16.907Z,8.58
2022-09-27T06:33:46.092Z,8.68
2022-09-27T06:35:54.991Z,8.68
2022-09-27T06:38:07.196Z,8.74
2022-09-27T06:40:15.806Z,8.84
2022-09-27T06:42:42.137Z,8.77
2022-09-27T06:44:59.017Z,8.75
2022-09-27T06:47:16.053Z,8.76
2022-09-27T06:49:52.456Z,8.80
2022-09-27T06:52:02.271Z,8.78
2022-09-27T06:54:10.409Z,8.89
2022-09-27T06:56:18.452Z,8.88
2022-09-27T06:58:42.692Z,8.98
2022-09-27T07:01:22.422Z,9.15
2022-09-27T07:03:53.230Z,9.17
2022-09-27T07:06:25.951Z,9.23
2022-09-27T07:08:40.175Z,9.29
2022-09-27T07:10:48.116Z,9.57
2022-09-27T07:12:56.765Z,9.58
2022-09-27T07:15:09.431Z,9.66
2022-09-27T07:17:17.572Z,9.76
2022-09-27T07:19:28.498Z,9.73
2022-09-27T07:21:39.841Z,9.89
2022-09-27T07:23:47.970Z,9.92
2022-09-27T07:25:56.537Z,10.00
2022-09-27T07:28:05.498Z,10.00
2022-09-27T07:30:15.160Z,9.81
2022-09-27T07:32:24.616Z,9.87
2022-09-27T07:34:38.107Z,9.92
2022-09-27T07:36:48.787Z,9.88
2022-09-27T07:38:59.385Z,9.98
2022-09-27T07:41:13.341Z,10.13
2022-09-27T07:43:22.351Z,9.89
2022-09-27T07:45:31.515Z,9.91
2022-09-27T07:47:50.708Z,9.94
2022-09-27T07:50:35.201Z,9.66
2022-09-27T07:53:05.099Z,9.74
2022-09-27T07:55:31.771Z,9.62
2022-09-27T07:58:07.305Z,9.74
2022-09-27T08:00:17.772Z,9.79
2022-09-27T08:02:27.461Z,9.90
2022-09-27T08:04:36.034Z,9.93
2022-09-27T08:06:43.961Z,10.19
2022-09-27T08:08:55.751Z,10.28
2022-09-27T08:11:03.696Z,10.30
2022-09-27T08:13:12.738Z,10.47
2022-09-27T08:15:21.566Z,10.50
2022-09-27T08:17:30.596Z,10.43
2022-09-27T08:19:58.872Z,10.51
2022-09-27T08:22:17.623Z,10.38
2022-09-27T08:24:37.091Z,10.38
2022-09-27T08:27:23.470Z,10.31
2022-09-27T08:29:42.010Z,10.58
2022-09-27T08:31:50.062Z,10.59
2022-09-27T08:34:00.833Z,11.19
2022-09-27T08:36:14.100Z,11.58
2022-09-27T08:38:22.886Z,11.89
2022-09-27T08:40:41.015Z,11.77
2022-09-27T08:42:54.800Z,11.92
2022-09-27T08:45:11.303Z,11.77
2022-09-27T08:47:25.997Z,11.74
2022-09-27T08:49:41.933Z,11.64
2022-09-27T08:51:55.815Z,11.47
2022-09-27T08:54:08.881Z,11.41
2022-09-27T08:56:21.654Z,11.15
2022-09-27T08:58:33.841Z,11.07
2022-09-27T09:00:43.749Z,10.89
2022-09-27T09:02:52.401Z,10.58
2022-09-27T09:05:05.905Z,10.27
2022-09-27T09:07:30.061Z,10.14
2022-09-27T09:09:47.662Z,10.28
2022-09-27T09:12:29.125Z,10.60
2022-09-27T09:15:04.007Z,11.84
2022-09-27T09:17:24.135Z,12.22
2022-09-27T09:20:17.174Z,13.22
2022-09-27T09:23:00.292Z,14.20
2022-09-27T09:25:24.508Z,15.51
2022-09-27T09:27:44.161Z,16.81
2022-09-27T09:30:16.602Z,18.16
2022-09-27T09:32:39.483Z,18.85
2022-09-27T09:34:52.017Z,18.64
2022-09-27T09:37:05.193Z,18.03
2022-09-27T09:39:17.907Z,19.39
2022-09-27T09:41:31.694Z,19.46
2022-09-27T09:43:48.241Z,18.66
2022-09-27T09:46:03.592Z,17.30
2022-09-27T09:48:22.849Z,15.87
2022-09-27T09:50:33.681Z,15.57
2022-09-27T09:52:46.869Z,14.72
2022-09-27T09:55:01.226Z,14.24
2022-09-27T09:57:18.555Z,14.76
2022-09-27T09:59:35.663Z,14.85
2022-09-27T10:01:48.528Z,15.06
2022-09-27T10:03:57.866Z,14.21
2022-09-27T10:06:05.934Z,13.91
2022-09-27T10:08:21.199Z,13.54
2022-09-27T10:10:37.361Z,15.06
2022-09-27T10:13:07.785Z,16.79
2022-09-27T10:15:23.819Z,16.45
2022-09-27T10:17:39.871Z,16.33
2022-09-27T10:19:52.784Z,17.47
2022-09-27T10:22:04.898Z,18.18
2022-09-27T10:24:18.152Z,16.57
2022-09-27T10:26:52.117Z,16.73
2022-09-27T10:29:00.489Z,17.08
2022-09-27T10:31:24.523Z,17.24
2022-09-27T10:33:56.702Z,16.55
2022-09-27T10:36:07.025Z,15.56
2022-09-27T10:38:30.423Z,15.17
2022-09-27T10:40:48.775Z,14.06
2022-09-27T10:42:59.141Z,13.58
2022-09-27T10:45:32.902Z,13.29
2022-09-27T10:47:50.752Z,12.89
2022-09-27T10:50:46.018Z,12.74
2022-09-27T10:53:07.862Z,13.04
2022-09-27T10:55:25.499Z,13.21
2022-09-27T10:57:35.921Z,13.13
2022-09-27T10:59:46.942Z,13.47
2022-09-27T11:01:55.143Z,13.35
2022-09-27T11:04:25.735Z,13.23
2022-09-27T11:06:38.292Z,13.16
2022-09-27T11:08:50.507Z,13.75
2022-09-27T11:11:09.406Z,14.26
2022-09-27T11:13:20.225Z,14.22
2022-09-27T11:15:34.029Z,14.16
2022-09-27T11:17:49.198Z,13.90
2022-09-27T11:20:18.791Z,14.01
2022-09-27T11:22:41.773Z,14.14
2022-09-27T11:25:07.520Z,13.75
2022-09-27T11:27:27.876Z,13.31
2022-09-27T11:29:47.448Z,13.36
2022-09-27T11:32:37.916Z,13.42
2022-09-27T11:35:10.935Z,13.50
2022-09-27T11:37:32.206Z,13.61
2022-09-27T11:39:56.286Z,13.36
2022-09-27T11:42:23.988Z,13.19
2022-09-27T11:45:19.858Z,13.30
2022-09-27T11:47:34.126Z,13.40
2022-09-27T11:50:01.544Z,13.16
2022-09-27T11:52:31.587Z,12.98
2022-09-27T11:54:56.666Z,12.70
2022-09-27T11:57:12.859Z,12.47
2022-09-27T12:00:02.878Z,12.64
2022-09-27T12:02:33.188Z,12.87
2022-09-27T12:04:54.547Z,12.91
2022-09-27T12:07:10.794Z,12.91
2022-09-27T12:09:25.844Z,12.84
2022-09-27T12:11:40.436Z,12.91
2022-09-27T12:13:54.973Z,13.30
2022-09-27T12:16:04.039Z,13.71
2022-09-27T12:18:29.506Z,13.58
2022-09-27T12:20:40.595Z,13.24
2022-09-27T12:22:59.459Z,13.05
2022-09-27T12:25:40.278Z,12.67
2022-09-27T12:28:07.229Z,12.58
2022-09-27T12:30:16.774Z,12.32
2022-09-27T12:32:30.678Z,12.10
2022-09-27T12:34:42.989Z,12.07
2022-09-27T12:36:56.155Z,11.79
2022-09-27T12:39:12.313Z,11.51
2022-09-27T12:41:28.547Z,11.46
2022-09-27T12:43:54.068Z,11.09
2022-09-27T12:46:19.366Z,11.12
2022-09-27T12:48:38.803Z,10.87
2022-09-27T12:50:55.901Z,11.15
2022-09-27T12:53:11.099Z,11.26
2022-09-27T12:55:50.239Z,11.24
2022-09-27T12:58:33.355Z,11.07
2022-09-27T13:00:47.037Z,11.14
2022-09-27T13:03:32.537Z,11.01
2022-09-27T13:06:11.427Z,11.09
2022-09-27T13:08:33.531Z,11.10
2022-09-27T13:10:49.169Z,10.86
2022-09-27T13:13:17.000Z,11.24
2022-09-27T13:15:30.416Z,11.22
2022-09-27T13:17:55.907Z,11.45
2022-09-27T13:20:52.910Z,11.31
2022-09-27T13:24:03.755Z,11.17
2022-09-27T13:26:44.855Z,11.01
2022-09-27T13:29:05.428Z,11.15
2022-09-27T13:31:18.966Z,10.86
2022-09-27T13:33:37.511Z,11.00
2022-09-27T13:36:05.523Z,11.01
2022-09-27T13:38:25.305Z,11.28
2022-09-27T13:40:36.830Z,11.40
2022-09-27T13:43:28.346Z,11.33
2022-09-27T13:45:52.136Z,11.38
2022-09-27T13:48:02.096Z,11.65
2022-09-27T13:50:23.788Z,11.53
2022-09-27T13:52:40.479Z,11.49
2022-09-27T13:54:58.315Z,11.26
2022-09-27T13:57:52.076Z,11.09
2022-09-27T14:00:08.847Z,10.79
2022-09-27T14:02:42.690Z,10.81
2022-09-27T14:04:53.046Z,11.14
2022-09-27T14:07:03.308Z,11.50
2022-09-27T14:09:21.056Z,11.70
2022-09-27T14:11:43.284Z,11.44
2022-09-27T14:13:55.106Z,11.23
2022-09-27T14:16:07.546Z,11.16
2022-09-27T14:18:21.591Z,11.38
2022-09-27T14:20:35.315Z,11.35
2022-09-27T14:22:44.899Z,11.09
2022-09-27T14:24:54.050Z,11.17
2022-09-27T14:27:19.120Z,10.87
2022-09-27T14:29:28.771Z,10.43
2022-09-27T14:31:37.396Z,9.88
2022-09-27T14:33:50.811Z,9.67
2022-09-27T14:36:11.102Z,9.76
2022-09-27T14:38:37.745Z,9.68
2022-09-27T14:41:01.331Z,9.72
2022-09-27T14:43:09.588Z,9.82
2022-09-27T14:45:23.734Z,9.99
2022-09-27T14:47:31.847Z,10.07
2022-09-27T14:49:51.785Z,10.08
2022-09-27T14:51:59.772Z,10.11
2022-09-27T14:54:11.450Z,10.13
2022-09-27T14:56:22.734Z,10.02
2022-09-27T14:58:46.651Z,10.22
2022-09-27T15:00:56.234Z,10.32
2022-09-27T15:03:09.116Z,10.53
2022-09-27T15:05:23.109Z,10.73
2022-09-27T15:07:30.983Z,10.90
2022-09-27T15:09:38.992Z,11.09
2022-09-27T15:11:51.634Z,11.05
2022-09-27T15:14:01.925Z,11.58
2022-09-27T15:16:16.466Z,11.21
2022-09-27T15:18:37.110Z,10.99
2022-09-27T15:20:56.652Z,11.20
2022-09-27T15:23:07.689Z,11.18
2022-09-27T15:25:23.619Z,11.08
2022-09-27T15:27:31.611Z,11.11
2022-09-27T15:29:39.390Z,11.18
2022-09-27T15:31:47.355Z,11.17
2022-09-27T15:33:57.626Z,11.20
2022-09-27T15:36:12.249Z,11.03
2022-09-27T15:38:31.100Z,10.95
2022-09-27T15:41:01.102Z,10.90
2022-09-27T15:43:21.199Z,10.74
2022-09-27T15:45:33.878Z,10.59
2022-09-27T15:47:52.850Z,10.51
2022-09-27T15:50:01.040Z,10.61
2022-09-27T15:52:43.359Z,10.51
2022-09-27T15:54:52.643Z,10.51
2022-09-27T15:57:04.615Z,10.49
2022-09-27T15:59:20.741Z,10.47
2022-09-27T16:01:28.514Z,10.53
2022-09-27T16:03:36.554Z,10.42
2022-09-27T16:05:44.341Z,10.41
2022-09-27T16:07:54.764Z,10.41
2022-09-27T16:10:02.532Z,10.44
2022-09-27T16:12:10.254Z,10.41
2022-09-27T16:14:22.223Z,10.44
2022-09-27T16:16:30.149Z,10.48
2022-09-27T16:18:37.924Z,10.39
2022-09-27T16:20:46.052Z,10.43
2022-09-27T16:22:57.784Z,10.42
2022-09-27T16:25:05.626Z,10.41
2022-09-27T16:27:13.482Z,10.29
2022-09-27T16:29:21.216Z,10.18
2022-09-27T16:31:29.002Z,10.21
2022-09-27T16:33:37.365Z,10.07
2022-09-27T16:35:45.269Z,10.13
2022-09-27T16:37:53.211Z,10.08
2022-09-27T16:40:04.204Z,10.06
2022-09-27T16:42:12.175Z,9.97
2022-09-27T16:44:19.966Z,9.97
2022-09-27T16:46:27.896Z,10.00
2022-09-27T16:48:35.726Z,9.93
2022-09-27T16:50:55.921Z,9.84
2022-09-27T16:53:05.334Z,9.84
2022-09-27T16:55:18.649Z,9.78
2022-09-27T16:57:26.997Z,9.85
2022-09-27T16:59:35.142Z,9.78
2022-09-27T17:01:42.978Z,9.80
2022-09-27T17:03:56.860Z,9.73
2022-09-27T17:06:06.386Z,9.72
2022-09-27T17:08:14.267Z,9.64
2022-09-27T17:10:25.865Z,9.56
2022-09-27T17:12:34.753Z,9.60
2022-09-27T17:14:42.868Z,9.51
2022-09-27T17:16:52.668Z,9.48
2022-09-27T17:19:00.520Z,9.48
2022-09-27T17:21:11.060Z,9.40
2022-09-27T17:23:18.855Z,9.40
2022-09-27T17:25:29.285Z,9.47
2022-09-27T17:27:37.061Z,9.43
2022-09-27T17:29:44.823Z,9.37
2022-09-27T17:31:52.628Z,9.38
2022-09-27T17:34:00.669Z,9.30
2022-09-27T17:36:09.089Z,9.34
2022-09-27T17:38:16.814Z,9.31
2022-09-27T17:40:24.567Z,9.30
2022-09-27T17:42:35.546Z,9.27
2022-09-27T17:44:43.331Z,9.24
2022-09-27T17:47:11.486Z,9.20
2022-09-27T17:49:31.639Z,9.24
2022-09-27T17:51:43.033Z,9.19
2022-09-27T17:53:51.084Z,9.23
2022-09-27T17:56:04.049Z,9.18
2022-09-27T17:58:14.885Z,9.17
2022-09-27T18:00:23.202Z,9.13
2022-09-27T18:02:31.487Z,9.01
2022-09-27T18:04:39.334Z,8.94
2022-09-27T18:06:48.483Z,8.89
2022-09-27T18:08:57.121Z,8.74
2022-09-27T18:11:10.073Z,8.71
2022-09-27T18:13:21.649Z,8.72
2022-09-27T18:15:29.728Z,8.64
2022-09-27T18:17:37.559Z,8.57
2022-09-27T18:19:45.438Z,8.47
2022-09-27T18:21:53.966Z,8.42
2022-09-27T18:24:06.378Z,8.39
2022-09-27T18:26:15.995Z,8.25
2022-09-27T18:28:28.627Z,8.24
2022-09-27T18:30:36.461Z,8.17
2022-09-27T18:32:44.305Z,8.13
2022-09-27T18:34:52.096Z,8.06
2022-09-27T18:37:00.110Z,8.03
2022-09-27T18:39:10.336Z,7.96
2022-09-27T18:41:20.407Z,8.00
2022-09-27T18:43:35.396Z,7.95
2022-09-27T18:45:46.430Z,7.97
2022-09-27T18:47:54.156Z,7.95
2022-09-27T18:50:04.805Z,7.88
2022-09-27T18:52:12.847Z,7.91
2022-09-27T18:54:25.538Z,7.81
2022-09-27T18:56:39.141Z,7.77
2022-09-27T18:58:50.274Z,7.78
2022-09-27T19:01:01.326Z,7.79
2022-09-27T19:03:09.179Z,7.81
2022-09-27T19:05:17.029Z,7.77
2022-09-27T19:07:24.846Z,7.79
2022-09-27T19:09:32.650Z,7.74
2022-09-27T19:11:40.790Z,7.71
2022-09-27T19:13:54.894Z,7.74
2022-09-27T19:16:03.847Z,7.67
2022-09-27T19:18:12.130Z,7.67
2022-09-27T19:20:20.194Z,7.57
2022-09-27T19:22:28.799Z,7.63
2022-09-27T19:24:36.676Z,7.47
2022-09-27T19:26:44.608Z,7.38
2022-09-27T19:28:56.691Z,7.26
2022-09-27T19:31:08.934Z,7.26
2022-09-27T19:33:19.195Z,7.06
2022-09-27T19:35:27.057Z,7.03
2022-09-27T19:37:34.918Z,6.93
2022-09-27T19:39:42.704Z,6.85
2022-09-27T19:41:54.228Z,6.82
2022-09-27T19:44:19.295Z,6.71
2022-09-27T19:49:20.592Z,6.60
2022-09-27T19:51:31.095Z,6.61
2022-09-27T19:53:53.682Z,6.56
2022-09-27T19:56:12.935Z,6.53
2022-09-27T19:58:21.146Z,6.51
2022-09-27T20:00:35.152Z,6.46
2022-09-27T20:02:43.384Z,6.44
2022-09-27T20:04:51.320Z,6.55
2022-09-27T20:06:59.114Z,6.42
2022-09-27T20:09:07.502Z,6.45
2022-09-27T20:11:18.314Z,6.48
2022-09-27T20:13:27.227Z,6.42
2022-09-27T20:15:37.623Z,6.42
2022-09-27T20:17:45.403Z,6.33
2022-09-27T20:19:53.312Z,6.41
2022-09-27T20:22:03.366Z,6.43
2022-09-27T20:24:11.524Z,6.43
2022-09-27T20:26:22.774Z,6.40
2022-09-27T20:28:30.695Z,6.35
2022-09-27T20:30:41.071Z,6.34
2022-09-27T20:33:08.996Z,6.33
2022-09-27T20:35:17.790Z,6.38
2022-09-27T20:37:25.611Z,6.44
2022-09-27T20:39:33.359Z,6.40
2022-09-27T20:41:42.850Z,6.54
2022-09-27T20:43:51.936Z,6.47
2022-09-27T20:46:06.067Z,6.61
2022-09-27T20:48:14.164Z,6.53
2022-09-27T20:50:21.861Z,6.56
2022-09-27T20:52:29.614Z,6.63
2022-09-27T20:54:37.447Z,6.69
2022-09-27T20:56:47.089Z,6.75
2022-09-27T20:58:56.937Z,6.75
2022-09-27T21:01:12.309Z,6.76
2022-09-27T21:03:21.923Z,6.83
2022-09-27T21:05:29.943Z,6.85
2022-09-27T21:07:38.429Z,6.88
2022-09-27T21:09:46.147Z,6.97
2022-09-27T21:11:54.436Z,7.00
2022-09-27T21:14:02.157Z,6.97
2022-09-27T21:16:15.085Z,7.03
2022-09-27T21:18:22.861Z,7.02
2022-09-27T21:20:32.943Z,7.01
2022-09-27T21:22:40.613Z,7.07
2022-09-27T21:24:52.028Z,7.10
2022-09-27T21:27:03.184Z,7.18
2022-09-27T21:29:12.216Z,7.16
2022-09-27T21:31:23.901Z,7.20
2022-09-27T21:33:31.673Z,7.21
2022-09-27T21:35:41.539Z,7.19
2022-09-27T21:37:50.876Z,7.18
2022-09-27T21:39:58.585Z,7.20
2022-09-27T21:42:06.586Z,7.25
2022-09-27T21:44:14.562Z,7.19
2022-09-27T21:46:26.867Z,7.21
2022-09-27T21:48:35.653Z,7.25
2022-09-27T21:50:43.377Z,7.28
2022-09-27T21:52:54.097Z,7.37
2022-09-27T21:55:06.242Z,7.36
2022-09-27T21:57:13.934Z,7.47
2022-09-27T21:59:21.678Z,7.56
2022-09-27T22:01:33.828Z,7.53
2022-09-27T22:03:43.523Z,7.61
2022-09-27T22:05:53.235Z,7.66
2022-09-27T22:08:00.981Z,7.75
2022-09-27T22:10:09.926Z,7.70
2022-09-27T22:12:17.691Z,7.70
2022-09-27T22:14:25.828Z,7.70
2022-09-27T22:16:36.507Z,7.59
2022-09-27T22:18:47.357Z,7.72
2022-09-27T22:20:55.213Z,7.56
2022-09-27T22:23:03.990Z,7.58
2022-09-27T22:25:12.253Z,7.59
2022-09-27T22:27:20.094Z,7.58
2022-09-27T22:29:27.869Z,7.63
2022-09-27T22:31:39.086Z,7.50
2022-09-27T22:33:51.737Z,7.53
2022-09-27T22:35:59.527Z,7.59
2022-09-27T22:38:07.297Z,7.56
2022-09-27T22:40:15.377Z,7.61
2022-09-27T22:42:23.350Z,7.53
2022-09-27T22:44:33.474Z,7.57
2022-09-27T22:46:44.211Z,7.53
2022-09-27T22:48:52.469Z,7.54
2022-09-27T22:51:01.063Z,7.59
2022-09-27T22:53:08.823Z,7.56
2022-09-27T22:55:16.578Z,7.59
2022-09-27T22:57:26.051Z,7.47
2022-09-27T22:59:33.883Z,7.41
2022-09-27T23:01:44.164Z,7.44
2022-09-27T23:03:53.754Z,7.51
2022-09-27T23:30:31.844Z,7.22
2022-09-27T23:46:06.005Z,7.21
2022-09-27T23:48:14.088Z,7.20
2022-09-27T23:50:22.175Z,7.17
2022-09-27T23:52:30.748Z,7.14
2022-09-27T23:54:38.658Z,7.14
2022-09-27T23:56:49.497Z,7.17
2022-09-27T23:58:57.681Z,7.17
